createdAt,value
2018-07-03T00:00:02.185Z,5.65
2018-07-03T00:00:14.610Z,5.65
2018-07-03T00:00:27.056Z,5.65
2018-07-03T00:00:39.471Z,5.65
2018-07-03T00:00:51.937Z,5.65
2018-07-03T00:01:04.366Z,5.65
2018-07-03T00:01:16.844Z,5.65
2018-07-03T00:01:29.364Z,5.65
2018-07-03T00:01:41.766Z,5.65
2018-07-03T00:01:54.160Z,5.65
2018-07-03T00:02:06.563Z,5.65
2018-07-03T00:02:19.025Z,5.65
2018-07-03T00:02:31.429Z,5.65
2018-07-03T00:02:43.828Z,5.65
2018-07-03T00:02:56.238Z,5.65
2018-07-03T00:03:08.640Z,5.65
2018-07-03T00:03:21.040Z,5.65
2018-07-03T00:03:33.453Z,5.65
2018-07-03T00:03:45.871Z,5.65
2018-07-03T00:03:58.266Z,5.65
2018-07-03T00:04:10.670Z,5.65
2018-07-03T00:04:23.069Z,5.65
2018-07-03T00:04:35.469Z,5.65
2018-07-03T00:04:47.868Z,5.65
2018-07-03T00:05:00.268Z,5.65
2018-07-03T00:05:12.685Z,5.65
2018-07-03T00:05:25.088Z,5.65
2018-07-03T00:05:37.493Z,5.65
2018-07-03T00:05:49.913Z,5.65
2018-07-03T00:06:02.300Z,5.65
2018-07-03T00:06:14.729Z,5.65
2018-07-03T00:06:27.228Z,5.65
2018-07-03T00:06:39.626Z,5.65
2018-07-03T00:06:52.029Z,5.65
2018-07-03T00:07:04.704Z,5.65
2018-07-03T00:07:17.107Z,5.65
2018-07-03T00:07:29.502Z,5.65
2018-07-03T00:07:41.939Z,5.65
2018-07-03T00:07:54.369Z,5.65
2018-07-03T00:08:06.773Z,5.65
2018-07-03T00:08:19.171Z,5.65
2018-07-03T00:08:31.707Z,5.65
2018-07-03T00:08:44.115Z,5.65
2018-07-03T00:08:56.667Z,4.46
2018-07-03T00:09:09.081Z,4.46
2018-07-03T00:09:21.478Z,4.46
2018-07-03T00:09:33.882Z,4.46
2018-07-03T00:09:46.285Z,4.46
2018-07-03T00:09:58.683Z,4.46
2018-07-03T00:10:11.075Z,4.46
2018-07-03T00:10:23.474Z,4.46
2018-07-03T00:10:35.866Z,4.46
2018-07-03T00:10:48.274Z,4.46
2018-07-03T00:11:00.807Z,4.46
2018-07-03T00:11:13.247Z,4.46
2018-07-03T00:11:25.642Z,4.46
2018-07-03T00:11:38.086Z,4.46
2018-07-03T00:11:50.491Z,4.46
2018-07-03T00:12:02.902Z,4.46
2018-07-03T00:12:15.320Z,4.46
2018-07-03T00:12:27.711Z,4.46
2018-07-03T00:12:40.098Z,4.46
2018-07-03T00:12:52.659Z,4.46
2018-07-03T00:13:05.065Z,4.46
2018-07-03T00:13:17.473Z,4.46
2018-07-03T00:13:29.875Z,4.46
2018-07-03T00:13:42.273Z,4.46
2018-07-03T00:13:54.693Z,4.46
2018-07-03T00:14:07.102Z,4.46
2018-07-03T00:14:19.508Z,4.46
2018-07-03T00:14:31.901Z,4.46
2018-07-03T00:14:44.291Z,4.46
2018-07-03T00:14:56.680Z,4.46
2018-07-03T00:15:09.100Z,4.46
2018-07-03T00:15:21.500Z,4.46
2018-07-03T00:15:33.909Z,4.46
2018-07-03T00:15:46.300Z,4.46
2018-07-03T00:15:58.714Z,4.46
2018-07-03T00:16:11.110Z,4.46
2018-07-03T00:16:23.528Z,4.46
2018-07-03T00:16:35.932Z,4.46
2018-07-03T00:16:48.333Z,4.46
2018-07-03T00:17:00.750Z,4.46
2018-07-03T00:17:13.217Z,4.46
2018-07-03T00:17:25.619Z,4.46
2018-07-03T00:17:38.029Z,4.46
2018-07-03T00:17:50.499Z,4.46
2018-07-03T00:18:02.913Z,4.46
2018-07-03T00:18:15.310Z,4.46
2018-07-03T00:18:27.718Z,4.46
2018-07-03T00:18:40.147Z,4.46
2018-07-03T00:18:52.542Z,4.98
2018-07-03T00:19:04.941Z,4.98
2018-07-03T00:19:17.358Z,4.98
2018-07-03T00:19:29.756Z,4.98
2018-07-03T00:19:42.138Z,4.98
2018-07-03T00:19:54.537Z,4.98
2018-07-03T00:20:06.952Z,4.98
2018-07-03T00:20:19.355Z,4.98
2018-07-03T00:20:31.744Z,4.98
2018-07-03T00:20:44.131Z,4.98
2018-07-03T00:20:56.576Z,4.98
2018-07-03T00:21:08.982Z,4.98
2018-07-03T00:21:21.383Z,4.98
2018-07-03T00:21:33.968Z,4.98
2018-07-03T00:21:46.355Z,4.98
2018-07-03T00:21:58.747Z,4.98
2018-07-03T00:22:11.149Z,4.98
2018-07-03T00:22:23.584Z,4.98
2018-07-03T00:22:35.985Z,4.98
2018-07-03T00:22:48.375Z,4.98
2018-07-03T00:23:00.767Z,4.98
2018-07-03T00:23:13.170Z,4.98
2018-07-03T00:23:25.569Z,4.98
2018-07-03T00:23:38.016Z,4.98
2018-07-03T00:23:50.422Z,4.98
2018-07-03T00:24:02.817Z,4.98
2018-07-03T00:24:15.213Z,4.98
2018-07-03T00:24:27.614Z,4.98
2018-07-03T00:24:40.008Z,4.98
2018-07-03T00:24:52.403Z,4.98
2018-07-03T00:25:04.849Z,4.98
2018-07-03T00:25:17.262Z,4.98
2018-07-03T00:25:29.652Z,4.98
2018-07-03T00:25:42.053Z,4.98
2018-07-03T00:25:54.451Z,4.98
2018-07-03T00:26:06.859Z,4.98
2018-07-03T00:26:19.260Z,4.98
2018-07-03T00:26:31.678Z,4.98
2018-07-03T00:26:44.081Z,4.98
2018-07-03T00:26:56.506Z,4.98
2018-07-03T00:27:08.909Z,4.98
2018-07-03T00:27:21.315Z,4.98
2018-07-03T00:27:33.712Z,4.98
2018-07-03T00:27:46.109Z,4.98
2018-07-03T00:27:58.514Z,4.98
2018-07-03T00:28:10.914Z,4.98
2018-07-03T00:28:23.325Z,4.98
2018-07-03T00:28:35.721Z,4.98
2018-07-03T00:28:48.117Z,4.98
2018-07-03T00:29:00.532Z,3.27
2018-07-03T00:29:12.923Z,3.27
2018-07-03T00:29:25.324Z,3.27
2018-07-03T00:29:37.735Z,3.27
2018-07-03T00:29:50.137Z,3.27
2018-07-03T00:30:02.558Z,3.27
2018-07-03T00:30:14.968Z,3.27
2018-07-03T00:30:27.540Z,3.27
2018-07-03T00:30:39.938Z,3.27
2018-07-03T00:30:52.374Z,3.27
2018-07-03T00:31:04.790Z,3.27
2018-07-03T00:31:17.209Z,3.27
2018-07-03T00:31:29.647Z,3.27
2018-07-03T00:31:42.045Z,3.27
2018-07-03T00:31:54.451Z,3.27
2018-07-03T00:32:06.862Z,3.27
2018-07-03T00:32:19.290Z,3.27
2018-07-03T00:32:31.712Z,3.27
2018-07-03T00:32:44.109Z,3.27
2018-07-03T00:32:56.499Z,3.27
2018-07-03T00:33:08.909Z,3.27
2018-07-03T00:33:21.322Z,3.27
2018-07-03T00:33:33.730Z,3.27
2018-07-03T00:33:46.144Z,3.27
2018-07-03T00:33:58.530Z,3.27
2018-07-03T00:34:10.958Z,3.27
2018-07-03T00:34:23.365Z,3.27
2018-07-03T00:34:35.767Z,3.27
2018-07-03T00:34:48.172Z,3.27
2018-07-03T00:35:00.638Z,3.27
2018-07-03T00:35:13.038Z,3.27
2018-07-03T00:35:25.442Z,3.27
2018-07-03T00:35:37.852Z,3.27
2018-07-03T00:35:50.267Z,3.27
2018-07-03T00:36:02.689Z,3.27
2018-07-03T00:36:15.336Z,3.27
2018-07-03T00:36:27.744Z,3.27
2018-07-03T00:36:40.155Z,3.27
2018-07-03T00:36:52.555Z,3.27
2018-07-03T00:37:04.966Z,3.27
2018-07-03T00:37:17.379Z,3.27
2018-07-03T00:37:29.787Z,3.27
2018-07-03T00:37:42.189Z,3.27
2018-07-03T00:37:54.595Z,3.27
2018-07-03T00:38:07.011Z,3.27
2018-07-03T00:38:19.410Z,3.27
2018-07-03T00:38:31.842Z,3.27
2018-07-03T00:38:44.249Z,3.27
2018-07-03T00:38:56.709Z,4.33
2018-07-03T00:39:09.115Z,4.33
2018-07-03T00:39:21.510Z,4.33
2018-07-03T00:39:33.923Z,4.33
2018-07-03T00:39:46.325Z,4.33
2018-07-03T00:39:58.753Z,4.33
2018-07-03T00:40:11.169Z,4.33
2018-07-03T00:40:23.564Z,4.33
2018-07-03T00:40:35.957Z,4.33
2018-07-03T00:40:48.341Z,4.33
2018-07-03T00:41:01.441Z,4.33
2018-07-03T00:41:14.055Z,4.33
2018-07-03T00:41:26.461Z,4.33
2018-07-03T00:41:38.851Z,4.33
2018-07-03T00:41:51.242Z,4.33
2018-07-03T00:42:03.639Z,4.33
2018-07-03T00:42:16.076Z,4.33
2018-07-03T00:42:28.555Z,4.33
2018-07-03T00:42:40.952Z,4.33
2018-07-03T00:42:53.364Z,4.33
2018-07-03T00:43:05.767Z,4.33
2018-07-03T00:43:18.172Z,4.33
2018-07-03T00:43:30.559Z,4.33
2018-07-03T00:43:42.959Z,4.33
2018-07-03T00:43:55.355Z,4.33
2018-07-03T00:44:07.764Z,4.33
2018-07-03T00:44:20.157Z,4.33
2018-07-03T00:44:32.568Z,4.33
2018-07-03T00:44:44.984Z,4.33
2018-07-03T00:44:57.400Z,4.33
2018-07-03T00:45:09.828Z,4.33
2018-07-03T00:45:22.235Z,4.33
2018-07-03T00:45:34.729Z,4.33
2018-07-03T00:45:47.286Z,4.33
2018-07-03T00:45:59.682Z,4.33
2018-07-03T00:46:12.095Z,4.33
2018-07-03T00:46:24.494Z,4.33
2018-07-03T00:46:36.891Z,4.33
2018-07-03T00:46:49.291Z,4.33
2018-07-03T00:47:01.705Z,4.33
2018-07-03T00:47:14.102Z,4.33
2018-07-03T00:47:26.507Z,4.33
2018-07-03T00:47:38.912Z,4.33
2018-07-03T00:47:51.331Z,4.33
2018-07-03T00:48:03.727Z,4.33
2018-07-03T00:48:16.145Z,4.33
2018-07-03T00:48:28.558Z,4.33
2018-07-03T00:48:41.113Z,4.33
2018-07-03T00:48:53.525Z,3.08
2018-07-03T00:49:05.932Z,3.08
2018-07-03T00:49:18.336Z,3.08
2018-07-03T00:49:30.739Z,3.08
2018-07-03T00:49:43.139Z,3.08
2018-07-03T00:49:55.531Z,3.08
2018-07-03T00:50:07.950Z,3.08
2018-07-03T00:50:20.370Z,3.08
2018-07-03T00:50:32.762Z,3.08
2018-07-03T00:50:45.164Z,3.08
2018-07-03T00:50:57.585Z,3.08
2018-07-03T00:51:10.000Z,3.08
2018-07-03T00:51:22.406Z,3.08
2018-07-03T00:51:34.943Z,3.08
2018-07-03T00:51:47.333Z,3.08
2018-07-03T00:51:59.728Z,3.08
2018-07-03T00:52:12.142Z,3.08
2018-07-03T00:52:24.531Z,3.08
2018-07-03T00:52:36.937Z,3.08
2018-07-03T00:52:49.340Z,3.08
2018-07-03T00:53:01.737Z,3.08
2018-07-03T00:53:14.140Z,3.08
2018-07-03T00:53:26.534Z,3.08
2018-07-03T00:53:38.944Z,3.08
2018-07-03T00:53:51.332Z,3.08
2018-07-03T00:54:03.737Z,3.08
2018-07-03T00:54:16.142Z,3.08
2018-07-03T00:54:28.540Z,3.08
2018-07-03T00:54:40.954Z,3.08
2018-07-03T00:54:53.363Z,3.08
2018-07-03T00:55:05.788Z,3.08
2018-07-03T00:55:18.210Z,3.08
2018-07-03T00:55:30.656Z,3.08
2018-07-03T00:55:43.189Z,3.08
2018-07-03T00:55:55.591Z,3.08
2018-07-03T00:56:07.993Z,3.08
2018-07-03T00:56:20.382Z,3.08
2018-07-03T00:56:32.873Z,3.08
2018-07-03T00:56:45.272Z,3.08
2018-07-03T00:56:57.695Z,3.08
2018-07-03T00:57:10.112Z,3.08
2018-07-03T00:57:22.508Z,3.08
2018-07-03T00:57:34.914Z,3.08
2018-07-03T00:57:47.335Z,3.08
2018-07-03T00:57:59.736Z,3.08
2018-07-03T00:58:12.136Z,3.08
2018-07-03T00:58:24.540Z,3.08
2018-07-03T00:58:36.934Z,3.08
2018-07-03T00:58:49.344Z,3.08
2018-07-03T00:59:01.754Z,2.8
2018-07-03T00:59:14.199Z,2.8
2018-07-03T00:59:26.603Z,2.8
2018-07-03T00:59:38.995Z,2.8
2018-07-03T00:59:51.385Z,2.8
2018-07-03T01:00:03.805Z,2.8
2018-07-03T01:00:16.296Z,2.8
2018-07-03T01:00:28.740Z,2.8
2018-07-03T01:00:41.169Z,2.8
2018-07-03T01:00:53.573Z,2.8
2018-07-03T01:01:06.030Z,2.8
2018-07-03T01:01:18.594Z,2.8
2018-07-03T01:01:31.077Z,2.8
2018-07-03T01:01:43.487Z,2.8
2018-07-03T01:01:55.894Z,2.8
2018-07-03T01:02:08.288Z,2.8
2018-07-03T01:02:20.741Z,2.8
2018-07-03T01:02:33.144Z,2.8
2018-07-03T01:02:45.564Z,2.8
2018-07-03T01:02:58.153Z,2.8
2018-07-03T01:03:10.574Z,2.8
2018-07-03T01:03:22.980Z,2.8
2018-07-03T01:03:35.388Z,2.8
2018-07-03T01:03:47.788Z,2.8
2018-07-03T01:04:00.192Z,2.8
2018-07-03T01:04:12.625Z,2.8
2018-07-03T01:04:25.043Z,2.8
2018-07-03T01:04:37.461Z,2.8
2018-07-03T01:04:49.869Z,2.8
2018-07-03T01:05:02.313Z,2.8
2018-07-03T01:05:14.740Z,2.8
2018-07-03T01:05:27.144Z,2.8
2018-07-03T01:05:39.603Z,2.8
2018-07-03T01:05:52.023Z,2.8
2018-07-03T01:06:04.417Z,2.8
2018-07-03T01:06:16.829Z,2.8
2018-07-03T01:06:29.257Z,2.8
2018-07-03T01:06:41.657Z,2.8
2018-07-03T01:06:54.066Z,2.8
2018-07-03T01:07:06.580Z,2.8
2018-07-03T01:07:18.976Z,2.8
2018-07-03T01:07:31.376Z,2.8
2018-07-03T01:07:43.779Z,2.8
2018-07-03T01:07:56.225Z,2.8
2018-07-03T01:08:08.609Z,2.8
2018-07-03T01:08:21.015Z,2.8
2018-07-03T01:08:33.502Z,2.8
2018-07-03T01:08:45.912Z,2.8
2018-07-03T01:08:58.470Z,1.81
2018-07-03T01:09:10.864Z,1.81
2018-07-03T01:09:23.269Z,1.81
2018-07-03T01:09:35.658Z,1.81
2018-07-03T01:09:48.065Z,1.81
2018-07-03T01:10:00.458Z,1.81
2018-07-03T01:10:12.858Z,1.81
2018-07-03T01:10:25.400Z,1.81
2018-07-03T01:10:37.806Z,1.81
2018-07-03T01:10:50.207Z,1.81
2018-07-03T01:11:02.601Z,1.81
2018-07-03T01:11:15.033Z,1.81
2018-07-03T01:11:27.426Z,1.81
2018-07-03T01:11:39.811Z,1.81
2018-07-03T01:11:52.234Z,1.81
2018-07-03T01:12:04.635Z,1.81
2018-07-03T01:12:17.032Z,1.81
2018-07-03T01:12:29.423Z,1.81
2018-07-03T01:12:41.819Z,1.81
2018-07-03T01:12:54.212Z,1.81
2018-07-03T01:13:06.610Z,1.81
2018-07-03T01:13:19.009Z,1.81
2018-07-03T01:13:31.412Z,1.81
2018-07-03T01:13:43.809Z,1.81
2018-07-03T01:13:56.209Z,1.81
2018-07-03T01:14:08.605Z,1.81
2018-07-03T01:14:20.999Z,1.81
2018-07-03T01:14:33.408Z,1.81
2018-07-03T01:14:45.814Z,1.81
2018-07-03T01:14:58.214Z,1.81
2018-07-03T01:15:10.605Z,1.81
2018-07-03T01:15:23.009Z,1.81
2018-07-03T01:15:35.442Z,1.81
2018-07-03T01:15:47.836Z,1.81
2018-07-03T01:16:00.238Z,1.81
2018-07-03T01:16:12.668Z,1.81
2018-07-03T01:16:25.115Z,1.81
2018-07-03T01:16:37.535Z,1.81
2018-07-03T01:16:49.983Z,1.81
2018-07-03T01:17:02.390Z,1.81
2018-07-03T01:17:14.787Z,1.81
2018-07-03T01:17:27.185Z,1.81
2018-07-03T01:17:39.584Z,1.81
2018-07-03T01:17:51.988Z,1.81
2018-07-03T01:18:04.396Z,1.81
2018-07-03T01:18:16.797Z,1.81
2018-07-03T01:18:29.206Z,1.81
2018-07-03T01:18:41.604Z,1.81
2018-07-03T01:18:53.993Z,1.45
2018-07-03T01:19:06.397Z,1.45
2018-07-03T01:19:18.797Z,1.45
2018-07-03T01:19:31.194Z,1.45
2018-07-03T01:19:43.593Z,1.45
2018-07-03T01:19:55.991Z,1.45
2018-07-03T01:20:08.383Z,1.45
2018-07-03T01:20:20.789Z,1.45
2018-07-03T01:20:33.223Z,1.45
2018-07-03T01:20:45.667Z,1.45
2018-07-03T01:20:58.112Z,1.45
2018-07-03T01:21:10.530Z,1.45
2018-07-03T01:21:22.928Z,1.45
2018-07-03T01:21:35.378Z,1.45
2018-07-03T01:21:47.780Z,1.45
2018-07-03T01:22:00.317Z,1.45
2018-07-03T01:22:12.712Z,1.45
2018-07-03T01:22:25.100Z,1.45
2018-07-03T01:22:37.498Z,1.45
2018-07-03T01:22:49.912Z,1.45
2018-07-03T01:23:02.336Z,1.45
2018-07-03T01:23:14.736Z,1.45
2018-07-03T01:23:27.130Z,1.45
2018-07-03T01:23:39.525Z,1.45
2018-07-03T01:23:51.923Z,1.45
2018-07-03T01:24:04.325Z,1.45
2018-07-03T01:24:16.726Z,1.45
2018-07-03T01:24:29.137Z,1.45
2018-07-03T01:24:41.576Z,1.45
2018-07-03T01:24:53.974Z,1.45
2018-07-03T01:25:06.379Z,1.45
2018-07-03T01:25:18.788Z,1.45
2018-07-03T01:25:31.177Z,1.45
2018-07-03T01:25:43.579Z,1.45
2018-07-03T01:25:55.969Z,1.45
2018-07-03T01:26:08.358Z,1.45
2018-07-03T01:26:20.768Z,1.45
2018-07-03T01:26:33.166Z,1.45
2018-07-03T01:26:45.558Z,1.45
2018-07-03T01:26:57.955Z,1.45
2018-07-03T01:27:10.405Z,1.45
2018-07-03T01:27:22.797Z,1.45
2018-07-03T01:27:35.229Z,1.45
2018-07-03T01:27:47.622Z,1.45
2018-07-03T01:28:00.098Z,1.45
2018-07-03T01:28:12.503Z,1.45
2018-07-03T01:28:24.901Z,1.45
2018-07-03T01:28:37.295Z,1.45
2018-07-03T01:28:49.700Z,1.45
2018-07-03T01:29:02.100Z,3.18
2018-07-03T01:29:14.493Z,3.18
2018-07-03T01:29:26.893Z,3.18
2018-07-03T01:29:39.293Z,3.18
2018-07-03T01:29:51.687Z,3.18
2018-07-03T01:30:04.087Z,3.18
2018-07-03T01:30:16.483Z,3.18
2018-07-03T01:30:28.887Z,3.18
2018-07-03T01:30:41.295Z,3.18
2018-07-03T01:30:53.680Z,3.18
2018-07-03T01:31:06.075Z,3.18
2018-07-03T01:31:18.480Z,3.18
2018-07-03T01:31:30.925Z,3.18
2018-07-03T01:31:43.315Z,3.18
2018-07-03T01:31:55.714Z,3.18
2018-07-03T01:32:08.100Z,3.18
2018-07-03T01:32:20.487Z,3.18
2018-07-03T01:32:32.896Z,3.18
2018-07-03T01:32:45.285Z,3.18
2018-07-03T01:32:57.736Z,3.18
2018-07-03T01:33:10.137Z,3.18
2018-07-03T01:33:22.534Z,3.18
2018-07-03T01:33:34.981Z,3.18
2018-07-03T01:33:47.383Z,3.18
2018-07-03T01:33:59.777Z,3.18
2018-07-03T01:34:12.172Z,3.18
2018-07-03T01:34:24.558Z,3.18
2018-07-03T01:34:36.958Z,3.18
2018-07-03T01:34:49.351Z,3.18
2018-07-03T01:35:01.747Z,3.18
2018-07-03T01:35:14.144Z,3.18
2018-07-03T01:35:26.527Z,3.18
2018-07-03T01:35:38.924Z,3.18
2018-07-03T01:35:51.338Z,3.18
2018-07-03T01:36:03.839Z,3.18
2018-07-03T01:36:17.227Z,3.18
2018-07-03T01:36:29.641Z,3.18
2018-07-03T01:36:42.043Z,3.18
2018-07-03T01:36:54.442Z,3.18
2018-07-03T01:37:06.863Z,3.18
2018-07-03T01:37:19.257Z,3.18
2018-07-03T01:37:31.663Z,3.18
2018-07-03T01:37:44.085Z,3.18
2018-07-03T01:37:56.484Z,3.18
2018-07-03T01:38:08.917Z,3.18
2018-07-03T01:38:21.306Z,3.18
2018-07-03T01:38:33.697Z,3.18
2018-07-03T01:38:46.081Z,3.18
2018-07-03T01:38:58.475Z,1.63
2018-07-03T01:39:10.926Z,1.63
2018-07-03T01:39:23.310Z,1.63
2018-07-03T01:39:35.705Z,1.63
2018-07-03T01:39:48.114Z,1.63
2018-07-03T01:40:00.496Z,1.63
2018-07-03T01:40:12.892Z,1.63
2018-07-03T01:40:25.296Z,1.63
2018-07-03T01:40:37.689Z,1.63
2018-07-03T01:40:50.090Z,1.63
2018-07-03T01:41:02.738Z,1.63
2018-07-03T01:41:15.277Z,1.63
2018-07-03T01:41:27.662Z,1.63
2018-07-03T01:41:40.050Z,1.63
2018-07-03T01:41:52.449Z,1.63
2018-07-03T01:42:04.858Z,1.63
2018-07-03T01:42:17.245Z,1.63
2018-07-03T01:42:29.652Z,1.63
2018-07-03T01:42:42.043Z,1.63
2018-07-03T01:42:54.451Z,1.63
2018-07-03T01:43:06.928Z,1.63
2018-07-03T01:43:19.322Z,1.63
2018-07-03T01:43:31.697Z,1.63
2018-07-03T01:43:44.106Z,1.63
2018-07-03T01:43:56.517Z,1.63
2018-07-03T01:44:08.918Z,1.63
2018-07-03T01:44:21.323Z,1.63
2018-07-03T01:44:33.735Z,1.63
2018-07-03T01:44:46.147Z,1.63
2018-07-03T01:44:58.544Z,1.63
2018-07-03T01:45:10.938Z,1.63
2018-07-03T01:45:23.342Z,1.63
2018-07-03T01:45:35.750Z,1.63
2018-07-03T01:45:48.473Z,1.63
2018-07-03T01:46:00.873Z,1.63
2018-07-03T01:46:13.280Z,1.63
2018-07-03T01:46:25.681Z,1.63
2018-07-03T01:46:38.090Z,1.63
2018-07-03T01:46:50.493Z,1.63
2018-07-03T01:47:02.930Z,1.63
2018-07-03T01:47:15.329Z,1.63
2018-07-03T01:47:27.737Z,1.63
2018-07-03T01:47:40.128Z,1.63
2018-07-03T01:47:52.531Z,1.63
2018-07-03T01:48:04.934Z,1.63
2018-07-03T01:48:17.425Z,1.63
2018-07-03T01:48:29.827Z,1.63
2018-07-03T01:48:42.419Z,1.63
2018-07-03T01:48:54.808Z,2.42
2018-07-03T01:49:07.198Z,2.42
2018-07-03T01:49:19.602Z,2.42
2018-07-03T01:49:31.998Z,2.42
2018-07-03T01:49:44.405Z,2.42
2018-07-03T01:49:56.803Z,2.42
2018-07-03T01:50:09.193Z,2.42
2018-07-03T01:50:21.591Z,2.42
2018-07-03T01:50:33.973Z,2.42
2018-07-03T01:50:46.361Z,2.42
2018-07-03T01:50:58.750Z,2.42
2018-07-03T01:51:11.173Z,2.42
2018-07-03T01:51:23.617Z,2.42
2018-07-03T01:51:36.013Z,2.42
2018-07-03T01:51:48.415Z,2.42
2018-07-03T01:52:00.798Z,2.42
2018-07-03T01:52:13.423Z,2.42
2018-07-03T01:52:25.816Z,2.42
2018-07-03T01:52:38.230Z,2.42
2018-07-03T01:52:50.624Z,2.42
2018-07-03T01:53:03.025Z,2.42
2018-07-03T01:53:15.422Z,2.42
2018-07-03T01:53:27.804Z,2.42
2018-07-03T01:53:40.353Z,2.42
2018-07-03T01:53:52.755Z,2.42
2018-07-03T01:54:05.152Z,2.42
2018-07-03T01:54:17.552Z,2.42
2018-07-03T01:54:29.939Z,2.42
2018-07-03T01:54:42.341Z,2.42
2018-07-03T01:54:54.741Z,2.42
2018-07-03T01:55:07.133Z,2.42
2018-07-03T01:55:19.520Z,2.42
2018-07-03T01:55:31.919Z,2.42
2018-07-03T01:55:44.329Z,2.42
2018-07-03T01:55:56.716Z,2.42
2018-07-03T01:56:09.170Z,2.42
2018-07-03T01:56:21.566Z,2.42
2018-07-03T01:56:33.997Z,2.42
2018-07-03T01:56:46.410Z,2.42
2018-07-03T01:56:58.824Z,2.42
2018-07-03T01:57:11.222Z,2.42
2018-07-03T01:57:23.609Z,2.42
2018-07-03T01:57:36.003Z,2.42
2018-07-03T01:57:48.395Z,2.42
2018-07-03T01:58:00.786Z,2.42
2018-07-03T01:58:13.187Z,2.42
2018-07-03T01:58:25.591Z,2.42
2018-07-03T01:58:38.114Z,2.42
2018-07-03T01:58:50.506Z,2.42
2018-07-03T01:59:02.934Z,2.27
2018-07-03T01:59:15.329Z,2.27
2018-07-03T01:59:27.713Z,2.27
2018-07-03T01:59:40.111Z,2.27
2018-07-03T01:59:52.494Z,2.27
2018-07-03T02:00:04.922Z,2.27
2018-07-03T02:00:17.350Z,2.27
2018-07-03T02:00:29.799Z,2.27
2018-07-03T02:00:42.236Z,2.27
2018-07-03T02:00:54.667Z,2.27
2018-07-03T02:01:07.062Z,2.27
2018-07-03T02:01:19.613Z,2.27
2018-07-03T02:01:32.263Z,2.27
2018-07-03T02:01:44.664Z,2.27
2018-07-03T02:01:57.065Z,2.27
2018-07-03T02:02:09.458Z,2.27
2018-07-03T02:02:21.865Z,2.27
2018-07-03T02:02:34.275Z,2.27
2018-07-03T02:02:46.655Z,2.27
2018-07-03T02:02:59.103Z,2.27
2018-07-03T02:03:11.509Z,2.27
2018-07-03T02:03:23.920Z,2.27
2018-07-03T02:03:36.336Z,2.27
2018-07-03T02:03:48.748Z,2.27
2018-07-03T02:04:01.148Z,2.27
2018-07-03T02:04:13.542Z,2.27
2018-07-03T02:04:25.946Z,2.27
2018-07-03T02:04:38.338Z,2.27
2018-07-03T02:04:50.741Z,2.27
2018-07-03T02:05:03.198Z,2.27
2018-07-03T02:05:15.627Z,2.27
2018-07-03T02:05:28.022Z,2.27
2018-07-03T02:05:40.444Z,2.27
2018-07-03T02:05:52.849Z,2.27
2018-07-03T02:06:05.246Z,2.27
2018-07-03T02:06:17.654Z,2.27
2018-07-03T02:06:30.161Z,2.27
2018-07-03T02:06:42.549Z,2.27
2018-07-03T02:06:54.943Z,2.27
2018-07-03T02:07:07.514Z,2.27
2018-07-03T02:07:19.900Z,2.27
2018-07-03T02:07:32.298Z,2.27
2018-07-03T02:07:44.740Z,2.27
2018-07-03T02:07:57.169Z,2.27
2018-07-03T02:08:09.707Z,2.27
2018-07-03T02:08:22.097Z,2.27
2018-07-03T02:08:34.649Z,2.27
2018-07-03T02:08:47.039Z,2.27
2018-07-03T02:08:59.572Z,1.45
2018-07-03T02:09:11.957Z,1.45
2018-07-03T02:09:24.359Z,1.45
2018-07-03T02:09:36.767Z,1.45
2018-07-03T02:09:49.162Z,1.45
2018-07-03T02:10:01.573Z,1.45
2018-07-03T02:10:13.978Z,1.45
2018-07-03T02:10:26.384Z,1.45
2018-07-03T02:10:38.783Z,1.45
2018-07-03T02:10:51.180Z,1.45
2018-07-03T02:11:03.586Z,1.45
2018-07-03T02:11:15.995Z,1.45
2018-07-03T02:11:28.390Z,1.45
2018-07-03T02:11:40.786Z,1.45
2018-07-03T02:11:53.184Z,1.45
2018-07-03T02:12:05.578Z,1.45
2018-07-03T02:12:17.968Z,1.45
2018-07-03T02:12:30.362Z,1.45
2018-07-03T02:12:42.768Z,1.45
2018-07-03T02:12:55.183Z,1.45
2018-07-03T02:13:07.585Z,1.45
2018-07-03T02:13:19.982Z,1.45
2018-07-03T02:13:32.406Z,1.45
2018-07-03T02:13:44.846Z,1.45
2018-07-03T02:13:57.296Z,1.45
2018-07-03T02:14:09.691Z,1.45
2018-07-03T02:14:22.103Z,1.45
2018-07-03T02:14:34.494Z,1.45
2018-07-03T02:14:46.889Z,1.45
2018-07-03T02:14:59.335Z,1.45
2018-07-03T02:15:11.737Z,1.45
2018-07-03T02:15:24.132Z,1.45
2018-07-03T02:15:36.521Z,1.45
2018-07-03T02:15:48.976Z,1.45
2018-07-03T02:16:01.368Z,1.45
2018-07-03T02:16:13.771Z,1.45
2018-07-03T02:16:26.168Z,1.45
2018-07-03T02:16:38.561Z,1.45
2018-07-03T02:16:50.970Z,1.45
2018-07-03T02:17:03.389Z,1.45
2018-07-03T02:17:15.793Z,1.45
2018-07-03T02:17:28.186Z,1.45
2018-07-03T02:17:40.635Z,1.45
2018-07-03T02:17:53.030Z,1.45
2018-07-03T02:18:05.419Z,1.45
2018-07-03T02:18:17.817Z,1.45
2018-07-03T02:18:30.201Z,1.45
2018-07-03T02:18:42.598Z,1.45
2018-07-03T02:18:54.986Z,1.45
2018-07-03T02:19:07.399Z,2.72
2018-07-03T02:19:19.856Z,2.72
2018-07-03T02:19:32.251Z,2.72
2018-07-03T02:19:44.651Z,2.72
2018-07-03T02:19:57.057Z,2.72
2018-07-03T02:20:09.455Z,2.72
2018-07-03T02:20:21.860Z,2.72
2018-07-03T02:20:34.287Z,2.72
2018-07-03T02:20:46.688Z,2.72
2018-07-03T02:20:59.102Z,2.72
2018-07-03T02:21:11.509Z,2.72
2018-07-03T02:21:23.898Z,2.72
2018-07-03T02:21:36.371Z,2.72
2018-07-03T02:21:48.769Z,2.72
2018-07-03T02:22:01.165Z,2.72
2018-07-03T02:22:13.569Z,2.72
2018-07-03T02:22:25.974Z,2.72
2018-07-03T02:22:38.374Z,2.72
2018-07-03T02:22:50.772Z,2.72
2018-07-03T02:23:03.177Z,2.72
2018-07-03T02:23:15.636Z,2.72
2018-07-03T02:23:28.023Z,2.72
2018-07-03T02:23:40.427Z,2.72
2018-07-03T02:23:52.837Z,2.72
2018-07-03T02:24:05.232Z,2.72
2018-07-03T02:24:17.637Z,2.72
2018-07-03T02:24:30.038Z,2.72
2018-07-03T02:24:42.428Z,2.72
2018-07-03T02:24:54.819Z,2.72
2018-07-03T02:25:07.231Z,2.72
2018-07-03T02:25:19.612Z,2.72
2018-07-03T02:25:32.015Z,2.72
2018-07-03T02:25:44.400Z,2.72
2018-07-03T02:25:56.819Z,2.72
2018-07-03T02:26:09.220Z,2.72
2018-07-03T02:26:21.602Z,2.72
2018-07-03T02:26:34.002Z,2.72
2018-07-03T02:26:46.483Z,2.72
2018-07-03T02:26:58.876Z,2.72
2018-07-03T02:27:11.285Z,2.72
2018-07-03T02:27:23.681Z,2.72
2018-07-03T02:27:36.085Z,2.72
2018-07-03T02:27:48.469Z,2.72
2018-07-03T02:28:00.853Z,2.72
2018-07-03T02:28:13.238Z,2.72
2018-07-03T02:28:25.639Z,2.72
2018-07-03T02:28:38.048Z,2.72
2018-07-03T02:28:50.443Z,2.72
2018-07-03T02:29:02.833Z,1.55
2018-07-03T02:29:15.246Z,1.55
2018-07-03T02:29:27.703Z,1.55
2018-07-03T02:29:40.104Z,1.55
2018-07-03T02:29:52.479Z,1.55
2018-07-03T02:30:04.936Z,1.55
2018-07-03T02:30:17.433Z,1.55
2018-07-03T02:30:29.852Z,1.55
2018-07-03T02:30:42.261Z,1.55
2018-07-03T02:30:54.686Z,1.55
2018-07-03T02:31:07.107Z,1.55
2018-07-03T02:31:19.505Z,1.55
2018-07-03T02:31:31.913Z,1.55
2018-07-03T02:31:44.359Z,1.55
2018-07-03T02:31:56.771Z,1.55
2018-07-03T02:32:09.196Z,1.55
2018-07-03T02:32:21.621Z,1.55
2018-07-03T02:32:34.039Z,1.55
2018-07-03T02:32:46.458Z,1.55
2018-07-03T02:32:58.872Z,1.55
2018-07-03T02:33:11.420Z,1.55
2018-07-03T02:33:23.821Z,1.55
2018-07-03T02:33:36.230Z,1.55
2018-07-03T02:33:48.636Z,1.55
2018-07-03T02:34:01.050Z,1.55
2018-07-03T02:34:13.476Z,1.55
2018-07-03T02:34:25.925Z,1.55
2018-07-03T02:34:38.347Z,1.55
2018-07-03T02:34:50.779Z,1.55
2018-07-03T02:35:03.217Z,1.55
2018-07-03T02:35:15.641Z,1.55
2018-07-03T02:35:28.108Z,1.55
2018-07-03T02:35:40.542Z,1.55
2018-07-03T02:35:52.974Z,1.55
2018-07-03T02:36:05.441Z,1.55
2018-07-03T02:36:18.092Z,1.55
2018-07-03T02:36:30.508Z,1.55
2018-07-03T02:36:42.939Z,1.55
2018-07-03T02:36:55.379Z,1.55
2018-07-03T02:37:07.813Z,1.55
2018-07-03T02:37:20.236Z,1.55
2018-07-03T02:37:32.678Z,1.55
2018-07-03T02:37:45.088Z,1.55
2018-07-03T02:37:57.505Z,1.55
2018-07-03T02:38:09.953Z,1.55
2018-07-03T02:38:22.375Z,1.55
2018-07-03T02:38:34.785Z,1.55
2018-07-03T02:38:47.177Z,1.55
2018-07-03T02:38:59.612Z,2.19
2018-07-03T02:39:12.827Z,2.19
2018-07-03T02:39:25.862Z,2.19
2018-07-03T02:39:38.284Z,2.19
2018-07-03T02:39:50.713Z,2.19
2018-07-03T02:40:03.153Z,2.19
2018-07-03T02:40:15.631Z,2.19
2018-07-03T02:40:28.050Z,2.19
2018-07-03T02:40:40.467Z,2.19
2018-07-03T02:40:53.010Z,2.19
2018-07-03T02:41:05.862Z,2.19
2018-07-03T02:41:18.291Z,2.19
2018-07-03T02:41:30.765Z,2.19
2018-07-03T02:41:43.197Z,2.19
2018-07-03T02:41:55.632Z,2.19
2018-07-03T02:42:08.037Z,2.19
2018-07-03T02:42:20.474Z,2.19
2018-07-03T02:42:32.884Z,2.19
2018-07-03T02:42:45.299Z,2.19
2018-07-03T02:42:57.715Z,2.19
2018-07-03T02:43:10.124Z,2.19
2018-07-03T02:43:22.526Z,2.19
2018-07-03T02:43:34.995Z,2.19
2018-07-03T02:43:47.414Z,2.19
2018-07-03T02:43:59.824Z,2.19
2018-07-03T02:44:12.228Z,2.19
2018-07-03T02:44:24.686Z,2.19
2018-07-03T02:44:37.105Z,2.19
2018-07-03T02:44:49.535Z,2.19
2018-07-03T02:45:01.975Z,2.19
2018-07-03T02:45:14.404Z,2.19
2018-07-03T02:45:26.857Z,2.19
2018-07-03T02:45:39.256Z,2.19